Time;durP1;ratioP1;P1;durP2;ratioP2;P2;SDS_P1;SDS_P2;PMS_P1;PMS_P2;Temp;Humidity;BMP_temperature;BMP_pressure;BME280_temperature;BME280_humidity;BME280_pressure;Samples;Min_cycle;Max_cycle;Signal;HPM_P1;HPM_P2
2022/07/19 00:00:18;;;;;;;8.10;4.10;;;24.90;81.70;;;;;;4177730;28;20400;-66
2022/07/19 00:02:19;;;;;;;7.15;4.32;;;24.90;80.60;;;;;;4178814;28;20468;-65
2022/07/19 00:04:19;;;;;;;7.55;3.97;;;24.90;80.00;;;;;;4179109;28;20048;-65
2022/07/19 00:06:20;;;;;;;7.32;3.95;;;24.80;79.60;;;;;;4178463;28;20059;-65
2022/07/19 00:08:21;;;;;;;7.68;3.75;;;24.80;79.50;;;;;;4178298;28;20056;-65
2022/07/19 00:10:21;;;;;;;5.20;3.38;;;24.70;79.80;;;;;;4177602;28;20037;-65
2022/07/19 00:12:22;;;;;;;6.90;4.00;;;24.70;80.00;;;;;;4178426;28;20045;-65
2022/07/19 00:14:23;;;;;;;6.82;3.70;;;24.70;79.50;;;;;;4178904;28;20060;-65
2022/07/19 00:16:24;;;;;;;5.50;3.58;;;24.70;79.90;;;;;;4178394;28;20053;-65
2022/07/19 00:18:24;;;;;;;6.15;3.72;;;24.60;80.80;;;;;;4177975;28;20091;-65
2022/07/19 00:20:25;;;;;;;5.57;3.13;;;24.60;81.20;;;;;;4177470;28;20610;-65
2022/07/19 00:22:27;;;;;;;6.75;3.45;;;24.60;80.10;;;;;;4178746;28;20040;-65
2022/07/19 00:24:27;;;;;;;5.87;3.60;;;24.50;80.30;;;;;;4178809;28;20415;-65
2022/07/19 00:26:28;;;;;;;4.80;3.20;;;24.50;81.60;;;;;;4177955;28;20116;-65
2022/07/19 00:28:29;;;;;;;8.70;3.42;;;24.50;80.90;;;;;;4178077;28;20060;-65
2022/07/19 00:30:29;;;;;;;5.35;3.20;;;24.50;81.70;;;;;;4177470;28;20040;-65
2022/07/19 00:32:30;;;;;;;5.15;2.83;;;24.50;81.30;;;;;;4178438;28;20215;-65
2022/07/19 00:34:31;;;;;;;4.97;3.10;;;24.50;80.70;;;;;;4168265;28;20037;-66
2022/07/19 00:36:31;;;;;;;6.00;3.05;;;24.50;82.50;;;;;;4177484;28;20033;-66
2022/07/19 00:38:32;;;;;;;6.78;3.83;;;24.40;83.20;;;;;;4178172;28;20037;-65
2022/07/19 00:40:33;;;;;;;5.43;3.50;;;24.40;81.90;;;;;;4177127;28;20536;-64
2022/07/19 00:42:33;;;;;;;5.15;3.38;;;24.30;82.50;;;;;;4178441;28;20021;-65
2022/07/19 00:44:34;;;;;;;5.80;3.40;;;24.30;82.90;;;;;;4178379;28;20025;-65
2022/07/19 00:46:35;;;;;;;5.15;3.10;;;24.30;82.80;;;;;;4177339;28;20033;-65
2022/07/19 00:48:35;;;;;;;6.13;3.00;;;24.30;81.10;;;;;;4177701;28;20043;-65
2022/07/19 00:50:36;;;;;;;4.90;3.08;;;24.30;81.50;;;;;;4177146;28;20033;-65
2022/07/19 00:52:39;;;;;;;3.78;2.95;;;24.30;80.40;;;;;;4178168;28;20494;-65
2022/07/19 00:54:41;;;;;;;4.93;3.05;;;24.20;80.80;;;;;;4178236;28;20021;-65
2022/07/19 00:56:47;;;;;;;6.68;2.92;;;24.20;81.20;;;;;;4176696;28;20029;-66
2022/07/19 00:58:49;;;;;;;5.43;3.33;;;24.20;82.20;;;;;;4177411;28;20033;-65
2022/07/19 01:00:51;;;;;;;4.95;3.00;;;24.10;82.30;;;;;;4176753;28;20480;-65
2022/07/19 01:02:52;;;;;;;5.90;2.85;;;24.10;81.80;;;;;;4178243;28;20136;-65
2022/07/19 01:04:53;;;;;;;4.47;3.00;;;24.10;82.60;;;;;;4178129;28;20116;-65
2022/07/19 01:06:54;;;;;;;5.55;2.78;;;24.00;81.40;;;;;;4176863;28;20083;-65
2022/07/19 01:08:54;;;;;;;6.35;3.10;;;24.00;81.90;;;;;;4177768;28;20048;-65
2022/07/19 01:10:55;;;;;;;4.43;2.75;;;24.00;81.50;;;;;;4176832;28;20071;-65
2022/07/19 01:12:56;;;;;;;4.25;2.90;;;24.00;81.10;;;;;;4178202;28;20041;-65
2022/07/19 01:14:57;;;;;;;4.18;2.70;;;24.00;82.40;;;;;;4177438;28;20377;-65
2022/07/19 01:16:59;;;;;;;4.15;2.50;;;23.90;80.90;;;;;;4176257;28;20028;-65
2022/07/19 01:19:00;;;;;;;4.53;2.88;;;23.90;80.50;;;;;;4178021;28;20033;-65
2022/07/19 01:21:04;;;;;;;4.50;2.75;;;23.80;81.70;;;;;;4176806;28;20033;-65
2022/07/19 01:23:04;;;;;;;5.85;2.70;;;23.80;83.90;;;;;;4177646;28;20029;-65
2022/07/19 01:25:06;;;;;;;5.55;2.88;;;23.80;81.60;;;;;;4177721;28;20044;-67
2022/07/19 01:27:07;;;;;;;4.03;2.30;;;23.80;81.60;;;;;;4177019;28;20041;-65
2022/07/19 01:29:08;;;;;;;6.18;3.25;;;23.80;81.50;;;;;;4177713;28;20048;-65
2022/07/19 01:31:09;;;;;;;4.47;2.70;;;23.70;82.20;;;;;;4176732;28;20040;-65
2022/07/19 01:33:09;;;;;;;5.22;2.83;;;23.70;82.00;;;;;;4178055;28;20496;-65
2022/07/19 01:35:10;;;;;;;4.38;2.47;;;23.70;82.10;;;;;;4167293;28;20546;-67
2022/07/19 01:37:10;;;;;;;5.13;2.70;;;23.70;83.40;;;;;;4176691;28;20423;-65
2022/07/19 01:39:11;;;;;;;4.50;2.42;;;23.60;82.80;;;;;;4177912;28;20044;-65
2022/07/19 01:41:12;;;;;;;4.38;2.70;;;23.60;82.50;;;;;;4174115;28;20029;-66
2022/07/19 01:43:13;;;;;;;3.92;2.65;;;23.60;82.40;;;;;;4177758;28;20068;-65
2022/07/19 01:45:14;;;;;;;3.90;2.33;;;23.60;83.60;;;;;;4176704;28;20036;-65
2022/07/19 01:47:14;;;;;;;4.18;2.38;;;23.60;82.00;;;;;;4176885;28;20064;-66
2022/07/19 01:49:15;;;;;;;4.65;2.53;;;23.60;81.80;;;;;;4177366;28;20033;-65
2022/07/19 01:51:15;;;;;;;4.13;2.50;;;23.50;82.00;;;;;;4174559;28;20528;-65
2022/07/19 01:53:16;;;;;;;6.88;2.40;;;23.50;82.30;;;;;;4174822;28;20033;-65
2022/07/19 01:55:18;;;;;;;4.20;2.38;;;23.50;83.10;;;;;;4176243;28;20039;-65
2022/07/19 01:57:19;;;;;;;4.28;2.60;;;23.50;82.90;;;;;;4176847;28;20125;-65
2022/07/19 01:59:20;;;;;;;4.43;2.55;;;23.50;83.40;;;;;;4177322;28;20033;-65
2022/07/19 02:01:20;;;;;;;4.05;2.50;;;23.40;82.50;;;;;;4170024;28;20030;-65
2022/07/19 02:03:21;;;;;;;5.68;2.58;;;23.40;81.50;;;;;;4161349;28;20120;-65
2022/07/19 02:05:22;;;;;;;8.18;3.13;;;23.40;82.50;;;;;;4166182;28;20048;-65
2022/07/19 02:07:22;;;;;;;3.35;2.20;;;23.30;82.40;;;;;;4176821;28;20120;-65
2022/07/19 02:09:23;;;;;;;4.32;2.53;;;23.30;82.10;;;;;;4177081;28;20045;-65
2022/07/19 02:11:36;;;;;;;3.58;2.47;;;23.30;82.80;;;;;;4176657;28;20037;-65
2022/07/19 02:13:36;;;;;;;;;;;23.30;82.20;;;;;;4177852;28;20110;-65
2022/07/19 02:15:37;;;;;;;4.93;3.00;;;23.30;81.80;;;;;;4176551;28;20364;-65
2022/07/19 02:17:38;;;;;;;3.65;2.50;;;23.30;82.90;;;;;;4176758;28;20064;-65
2022/07/19 02:19:38;;;;;;;3.75;2.58;;;23.30;83.80;;;;;;4176845;28;20049;-65
2022/07/19 02:21:39;;;;;;;3.95;2.65;;;23.30;84.70;;;;;;4176906;28;20098;-65
2022/07/19 02:23:39;;;;;;;4.30;2.63;;;23.30;83.60;;;;;;4177472;28;20053;-65
2022/07/19 02:25:40;;;;;;;4.13;2.40;;;23.20;84.20;;;;;;4176776;28;20036;-65
2022/07/19 02:27:41;;;;;;;4.85;2.60;;;23.20;84.00;;;;;;4179028;28;20037;-65
2022/07/19 02:29:42;;;;;;;3.75;2.63;;;23.20;83.80;;;;;;4180040;28;20028;-65
2022/07/19 02:31:44;;;;;;;2.90;2.30;;;23.20;84.20;;;;;;4179554;28;20033;-65
2022/07/19 02:33:45;;;;;;;4.13;2.35;;;23.20;84.40;;;;;;4180230;28;20029;-65
2022/07/19 02:35:46;;;;;;;3.47;2.30;;;23.20;84.70;;;;;;4170044;28;20400;-65
2022/07/19 02:37:46;;;;;;;4.43;2.70;;;23.10;84.70;;;;;;4179216;28;20033;-65
2022/07/19 02:39:47;;;;;;;4.10;2.38;;;23.10;85.10;;;;;;4179871;28;20021;-65
2022/07/19 02:41:47;;;;;;;4.45;2.40;;;23.10;83.70;;;;;;4179620;28;20369;-65
2022/07/19 02:43:48;;;;;;;4.32;2.83;;;23.10;85.10;;;;;;4180152;28;20032;-65
2022/07/19 02:45:48;;;;;;;3.00;2.35;;;23.10;85.10;;;;;;4179928;28;20037;-64
2022/07/19 02:47:49;;;;;;;4.32;2.65;;;23.00;84.30;;;;;;4179456;28;20526;-65
2022/07/19 02:49:50;;;;;;;4.10;2.47;;;23.00;84.10;;;;;;4179612;28;20036;-65
2022/07/19 02:51:50;;;;;;;4.90;2.97;;;23.00;84.10;;;;;;4179491;28;20059;-65
2022/07/19 02:53:53;;;;;;;4.45;2.92;;;23.00;84.90;;;;;;4180506;28;20028;-65
2022/07/19 02:55:54;;;;;;;5.32;2.90;;;23.00;85.00;;;;;;4179240;28;20025;-65
2022/07/19 02:57:55;;;;;;;5.40;3.05;;;22.90;84.60;;;;;;4179308;28;20425;-65
2022/07/19 02:59:56;;;;;;;4.18;2.63;;;22.90;84.90;;;;;;4179399;28;20040;-65
2022/07/19 03:01:56;;;;;;;4.07;2.50;;;22.90;85.10;;;;;;4179540;28;20057;-65
2022/07/19 03:03:58;;;;;;;4.20;2.50;;;22.90;84.60;;;;;;4178307;28;20021;-65
2022/07/19 03:05:59;;;;;;;3.92;2.60;;;22.90;84.90;;;;;;4179460;28;20033;-65
2022/07/19 03:08:00;;;;;;;3.72;2.40;;;22.90;85.20;;;;;;4178025;28;20029;-65
2022/07/19 03:10:01;;;;;;;4.53;2.60;;;22.90;84.40;;;;;;4179025;28;20558;-65
2022/07/19 03:12:02;;;;;;;5.75;2.63;;;22.80;84.50;;;;;;4179227;28;20448;-65
2022/07/19 03:14:02;;;;;;;6.60;2.72;;;22.80;85.60;;;;;;4180038;28;20384;-65
2022/07/19 03:16:03;;;;;;;4.53;2.78;;;22.80;86.80;;;;;;4179441;28;20037;-65
2022/07/19 03:18:04;;;;;;;4.28;2.35;;;22.70;85.50;;;;;;4176726;28;20542;-66
2022/07/19 03:20:05;;;;;;;4.57;2.75;;;22.80;85.90;;;;;;4178841;28;20021;-66
2022/07/19 03:22:06;;;;;;;3.35;2.22;;;22.80;84.60;;;;;;4179239;28;20032;-65
2022/07/19 03:24:06;;;;;;;5.57;2.45;;;22.70;85.00;;;;;;4179975;28;20025;-65
2022/07/19 03:26:07;;;;;;;6.85;3.35;;;22.70;84.80;;;;;;4177207;28;20087;-66
2022/07/19 03:28:07;;;;;;;4.13;2.50;;;22.70;84.50;;;;;;4178422;28;20099;-65
2022/07/19 03:30:08;;;;;;;4.13;2.40;;;22.60;84.50;;;;;;4178523;28;20033;-65
2022/07/19 03:32:09;;;;;;;3.10;2.40;;;22.60;84.70;;;;;;4179384;28;20108;-65
2022/07/19 03:34:10;;;;;;;4.95;2.72;;;22.60;85.80;;;;;;4178617;28;20052;-65
2022/07/19 03:36:10;;;;;;;4.97;2.45;;;22.60;85.60;;;;;;4179082;28;20029;-65
2022/07/19 03:38:12;;;;;;;4.28;2.78;;;22.60;85.30;;;;;;4178263;28;20025;-65
2022/07/19 03:40:12;;;;;;;5.57;2.72;;;22.50;86.20;;;;;;4178036;28;20056;-65
2022/07/19 03:42:13;;;;;;;5.53;2.78;;;22.50;86.10;;;;;;4179439;28;20032;-66
2022/07/19 03:44:13;;;;;;;4.40;2.85;;;22.50;86.20;;;;;;4179517;28;20037;-65
2022/07/19 03:46:14;;;;;;;4.30;2.53;;;22.50;86.10;;;;;;4179146;28;20480;-65
2022/07/19 03:48:17;;;;;;;7.22;2.47;;;22.50;86.30;;;;;;4178464;28;20087;-65
2022/07/19 03:50:18;;;;;;;4.13;2.47;;;22.40;87.40;;;;;;4160570;28;20041;-65
2022/07/19 03:52:18;;;;;;;5.47;2.70;;;22.40;86.40;;;;;;4179264;28;20041;-65
2022/07/19 03:54:19;;;;;;;4.00;2.58;;;22.40;85.70;;;;;;4179239;28;20037;-65
2022/07/19 03:56:20;;;;;;;7.28;2.80;;;22.40;86.40;;;;;;4178466;28;20037;-65
2022/07/19 03:58:21;;;;;;;5.13;2.67;;;22.30;86.80;;;;;;4178295;28;20079;-65
2022/07/19 04:00:22;;;;;;;5.25;2.60;;;22.30;87.00;;;;;;4177999;28;20041;-65
2022/07/19 04:02:22;;;;;;;5.38;3.45;;;22.30;87.60;;;;;;4177580;28;20052;-65
2022/07/19 04:04:23;;;;;;;5.30;2.65;;;22.30;87.10;;;;;;4179231;28;20041;-65
2022/07/19 04:06:23;;;;;;;4.20;2.67;;;22.30;87.60;;;;;;4178547;28;20049;-65
2022/07/19 04:08:24;;;;;;;4.00;2.60;;;22.30;87.60;;;;;;4178299;28;20075;-65
2022/07/19 04:10:25;;;;;;;3.13;2.63;;;22.30;87.90;;;;;;4173041;28;20559;-65
2022/07/19 04:12:25;;;;;;;4.07;2.50;;;22.30;86.70;;;;;;4197518;28;20040;-65
2022/07/19 04:14:26;;;;;;;3.55;2.45;;;22.30;88.00;;;;;;4168931;28;20029;-65
2022/07/19 04:16:26;;;;;;;6.88;2.42;;;22.30;89.10;;;;;;4177869;28;20039;-65
2022/07/19 04:18:27;;;;;;;5.00;2.88;;;22.30;87.50;;;;;;4178292;28;20036;-65
2022/07/19 04:20:29;;;;;;;3.95;2.45;;;22.30;87.70;;;;;;4177821;28;20041;-65
2022/07/19 04:22:30;;;;;;;3.90;2.70;;;22.30;88.00;;;;;;4178825;28;20099;-65
2022/07/19 04:24:31;;;;;;;4.70;2.88;;;22.30;87.90;;;;;;4178940;28;20152;-65
2022/07/19 04:26:31;;;;;;;4.32;2.47;;;22.30;87.80;;;;;;4193616;28;20040;-65
2022/07/19 04:28:32;;;;;;;5.30;2.88;;;22.30;88.10;;;;;;4178090;28;20037;-65
2022/07/19 04:30:33;;;;;;;4.70;2.53;;;22.30;88.10;;;;;;4176480;28;20492;-65
2022/07/19 04:32:34;;;;;;;5.22;3.00;;;22.30;89.50;;;;;;4178623;28;20130;-65
2022/07/19 04:34:35;;;;;;;4.63;2.67;;;22.30;89.00;;;;;;4178450;28;20048;-65
2022/07/19 04:36:37;;;;;;;4.57;2.72;;;22.30;89.00;;;;;;4177398;28;20040;-65
2022/07/19 04:38:37;;;;;;;3.75;2.47;;;22.30;89.20;;;;;;4178216;28;20025;-65
2022/07/19 04:40:38;;;;;;;4.85;2.65;;;22.40;89.20;;;;;;4161018;28;20040;-65
2022/07/19 04:42:39;;;;;;;3.88;2.80;;;22.40;89.60;;;;;;4198880;28;20116;-65
2022/07/19 04:44:40;;;;;;;5.57;2.83;;;22.30;90.00;;;;;;4183839;28;20035;-65
2022/07/19 04:46:40;;;;;;;4.80;3.20;;;22.40;90.10;;;;;;4177718;28;20044;-65
2022/07/19 04:48:41;;;;;;;3.83;2.75;;;22.40;90.10;;;;;;4178109;28;20045;-65
2022/07/19 04:50:41;;;;;;;6.72;2.70;;;22.40;90.30;;;;;;4176851;28;20392;-65
2022/07/19 04:52:43;;;;;;;4.43;2.92;;;22.40;90.50;;;;;;4178350;28;20138;-64
2022/07/19 04:54:44;;;;;;;3.45;2.58;;;22.50;90.40;;;;;;4178867;28;20033;-65
2022/07/19 04:56:44;;;;;;;4.05;2.47;;;22.40;90.50;;;;;;4191085;28;20044;-65
2022/07/19 04:58:45;;;;;;;8.35;2.70;;;22.40;90.70;;;;;;4177611;28;20400;-66
2022/07/19 05:00:46;;;;;;;4.13;2.55;;;22.40;90.80;;;;;;4175698;28;20114;-65
2022/07/19 05:02:46;;;;;;;4.72;2.35;;;22.40;90.90;;;;;;4177183;28;20039;-65
2022/07/19 05:04:47;;;;;;;4.32;2.65;;;22.50;91.00;;;;;;4175818;28;20033;-65
2022/07/19 05:06:51;;;;;;;4.57;2.88;;;22.50;91.50;;;;;;4168176;28;20081;-65
2022/07/19 05:08:53;;;;;;;4.72;2.97;;;22.50;91.50;;;;;;4167122;28;20044;-65
2022/07/19 05:10:53;;;;;;;7.13;2.85;;;22.50;91.40;;;;;;4178427;28;20037;-65
2022/07/19 05:12:54;;;;;;;4.85;2.63;;;22.60;92.20;;;;;;4167614;28;20459;-65
2022/07/19 05:14:54;;;;;;;4.22;2.83;;;22.60;91.90;;;;;;4178218;28;20029;-65
2022/07/19 05:16:55;;;;;;;4.78;2.70;;;22.70;92.00;;;;;;4177110;28;20094;-65
2022/07/19 05:18:55;;;;;;;5.40;3.35;;;22.60;92.30;;;;;;4178145;28;20545;-65
2022/07/19 05:20:56;;;;;;;4.50;2.47;;;22.60;92.60;;;;;;4156554;28;20027;-65
2022/07/19 05:22:57;;;;;;;8.00;2.85;;;22.60;92.80;;;;;;4171564;28;20039;-65
2022/07/19 05:24:58;;;;;;;4.05;2.97;;;22.60;92.90;;;;;;4181103;28;20037;-65
2022/07/19 05:26:59;;;;;;;3.85;2.58;;;22.70;93.10;;;;;;4176132;28;20037;-65
2022/07/19 05:29:00;;;;;;;5.22;2.75;;;22.70;93.00;;;;;;4176622;28;20487;-65
2022/07/19 05:31:01;;;;;;;7.72;2.60;;;22.70;92.70;;;;;;4176394;28;20035;-65
2022/07/19 05:33:01;;;;;;;4.68;2.50;;;22.80;92.40;;;;;;4177919;28;20037;-65
2022/07/19 05:35:02;;;;;;;4.80;2.53;;;22.80;92.30;;;;;;4177801;28;20037;-65
2022/07/19 05:37:03;;;;;;;4.80;2.35;;;22.80;92.00;;;;;;4176499;28;20373;-65
2022/07/19 05:39:04;;;;;;;5.20;2.60;;;22.90;92.10;;;;;;4177521;28;20031;-65
2022/07/19 05:41:10;;;;;;;4.10;2.35;;;22.90;92.20;;;;;;4166396;28;20038;-65
2022/07/19 05:43:10;;;;;;;6.05;2.72;;;23.00;92.20;;;;;;4166455;28;20035;-65
2022/07/19 05:45:11;;;;;;;4.15;2.63;;;23.00;92.30;;;;;;4174515;28;20079;-66
2022/07/19 05:47:13;;;;;;;4.25;2.58;;;23.10;92.30;;;;;;4177009;28;20029;-66
2022/07/19 05:49:14;;;;;;;5.38;2.42;;;23.20;90.80;;;;;;4177496;28;20032;-65
2022/07/19 05:51:14;;;;;;;6.15;2.55;;;23.20;90.50;;;;;;4176358;28;20059;-65
2022/07/19 05:53:17;;;;;;;4.00;2.70;;;23.30;90.90;;;;;;4175935;28;20079;-65
2022/07/19 05:55:17;;;;;;;5.07;2.20;;;23.40;91.10;;;;;;4189716;28;20057;-66
2022/07/19 05:57:18;;;;;;;5.57;2.53;;;23.40;90.10;;;;;;4177001;28;20033;-67
2022/07/19 05:59:20;;;;;;;4.43;2.45;;;23.50;88.50;;;;;;4177251;28;20033;-63
2022/07/19 06:01:24;;;;;;;6.95;2.78;;;23.50;90.10;;;;;;4178950;28;20055;-63
2022/07/19 06:03:24;;;;;;;3.10;2.20;;;23.60;86.00;;;;;;4180988;28;20040;-63
2022/07/19 06:05:25;;;;;;;4.30;2.53;;;23.70;85.20;;;;;;4180387;28;20029;-63
2022/07/19 06:07:25;;;;;;;2.88;2.03;;;23.80;83.40;;;;;;4179714;28;20079;-63
2022/07/19 06:09:26;;;;;;;4.53;2.38;;;24.10;81.40;;;;;;4190505;28;20064;-64
2022/07/19 06:11:28;;;;;;;10.40;2.55;;;24.40;80.30;;;;;;4179879;28;20399;-64
2022/07/19 06:13:28;;;;;;;5.00;2.00;;;24.80;80.30;;;;;;4180875;28;20045;-63
2022/07/19 06:15:29;;;;;;;3.65;1.90;;;25.20;75.90;;;;;;4180153;28;20449;-64
2022/07/19 06:17:29;;;;;;;4.57;2.10;;;25.60;74.70;;;;;;4180228;28;20041;-64
2022/07/19 06:19:30;;;;;;;3.95;2.05;;;26.00;73.70;;;;;;4180011;28;20372;-64
2022/07/19 06:21:31;;;;;;;5.82;2.33;;;26.40;73.10;;;;;;4179780;28;20072;-64
2022/07/19 06:23:32;;;;;;;5.78;2.78;;;26.70;72.40;;;;;;4197462;28;20033;-64
2022/07/19 06:25:32;;;;;;;7.03;2.50;;;27.10;70.80;;;;;;4197012;28;20043;-64
2022/07/19 06:27:33;;;;;;;7.10;2.60;;;27.40;70.10;;;;;;4180039;28;20492;-64
2022/07/19 06:29:33;;;;;;;5.47;2.35;;;27.70;69.40;;;;;;4179825;28;20037;-64
2022/07/19 06:31:34;;;;;;;3.85;2.00;;;28.10;68.40;;;;;;4179981;28;20119;-64
2022/07/19 06:33:35;;;;;;;2.72;1.90;;;28.40;68.90;;;;;;4180503;28;20219;-64
2022/07/19 06:35:35;;;;;;;3.97;1.88;;;28.70;68.00;;;;;;4180097;28;20041;-64
2022/07/19 06:37:36;;;;;;;4.15;2.03;;;28.90;66.70;;;;;;4176731;28;20037;-64
2022/07/19 06:39:36;;;;;;;3.72;2.10;;;29.10;65.20;;;;;;4179796;28;20128;-64
2022/07/19 06:41:37;;;;;;;5.45;2.30;;;29.30;65.30;;;;;;4179726;28;20033;-64
2022/07/19 06:43:39;;;;;;;3.33;1.83;;;29.50;64.20;;;;;;4179473;28;20025;-64
2022/07/19 06:45:40;;;;;;;4.00;1.88;;;29.70;64.20;;;;;;4173559;28;20033;-65
2022/07/19 06:47:41;;;;;;;6.18;2.30;;;29.80;64.10;;;;;;4161015;28;20044;-65
2022/07/19 06:49:42;;;;;;;2.45;1.77;;;29.90;63.90;;;;;;4179720;28;20528;-65
2022/07/19 06:51:42;;;;;;;5.25;2.47;;;30.00;63.70;;;;;;4178693;28;20078;-65
2022/07/19 06:53:43;;;;;;;3.60;2.03;;;30.10;63.80;;;;;;4179076;28;20047;-65
2022/07/19 06:55:44;;;;;;;4.80;2.28;;;30.20;62.50;;;;;;4178791;28;20040;-65
2022/07/19 06:57:44;;;;;;;3.85;1.70;;;30.10;61.30;;;;;;4178448;28;20029;-65
2022/07/19 06:59:45;;;;;;;2.50;1.80;;;30.10;59.80;;;;;;4176031;28;20025;-65
2022/07/19 07:01:46;;;;;;;3.47;1.70;;;30.10;59.20;;;;;;4178154;28;20037;-66
2022/07/19 07:03:47;;;;;;;6.50;1.92;;;30.20;58.70;;;;;;4176118;28;20033;-65
2022/07/19 07:05:47;;;;;;;7.18;1.90;;;30.10;57.90;;;;;;4179467;28;20029;-65
2022/07/19 07:07:51;;;;;;;6.95;1.90;;;30.20;58.30;;;;;;4179040;28;20043;-65
2022/07/19 07:09:51;;;;;;;4.75;1.83;;;30.10;57.90;;;;;;4177132;28;20037;-65
2022/07/19 07:11:52;;;;;;;3.22;1.77;;;30.10;57.00;;;;;;4177651;28;20025;-65
2022/07/19 07:13:52;;;;;;;3.30;2.10;;;30.10;57.90;;;;;;4179664;28;20029;-65
2022/07/19 07:15:53;;;;;;;5.85;1.70;;;30.20;57.20;;;;;;4179299;28;20499;-65
2022/07/19 07:17:54;;;;;;;2.75;1.80;;;30.20;58.20;;;;;;4176327;28;20021;-65
2022/07/19 07:19:54;;;;;;;4.80;1.52;;;30.20;56.90;;;;;;4177449;28;20033;-65
2022/07/19 07:21:57;;;;;;;4.43;2.35;;;30.20;56.90;;;;;;4186995;28;20111;-65
2022/07/19 07:23:57;;;;;;;5.28;1.80;;;30.20;57.30;;;;;;4179826;28;20108;-64
2022/07/19 07:25:58;;;;;;;5.05;2.08;;;30.20;57.40;;;;;;4178857;28;20041;-64
2022/07/19 07:27:59;;;;;;;2.80;1.80;;;30.20;57.60;;;;;;4178919;28;20045;-65
2022/07/19 07:29:59;;;;;;;4.28;1.50;;;30.30;57.70;;;;;;4178862;28;20102;-65
2022/07/19 07:32:00;;;;;;;2.75;1.70;;;30.40;57.60;;;;;;4179072;28;20029;-65
2022/07/19 07:34:01;;;;;;;3.15;1.60;;;30.40;57.30;;;;;;4179344;28;20036;-65
2022/07/19 07:36:01;;;;;;;3.67;1.80;;;30.40;56.90;;;;;;4179236;28;20039;-65
2022/07/19 07:38:02;;;;;;;7.22;2.22;;;30.40;56.60;;;;;;4180236;28;20052;-65
2022/07/19 07:40:03;;;;;;;5.25;1.95;;;30.40;56.30;;;;;;4178885;28;20056;-65
2022/07/19 07:42:04;;;;;;;5.15;1.50;;;30.50;56.10;;;;;;4179232;28;20162;-65
2022/07/19 07:44:05;;;;;;;6.53;1.75;;;30.60;57.10;;;;;;4179361;28;20036;-64
2022/07/19 07:46:06;;;;;;;4.97;1.95;;;30.70;58.10;;;;;;4179135;28;20088;-65
2022/07/19 07:48:07;;;;;;;2.83;1.95;;;30.70;58.00;;;;;;4178511;28;20049;-64
2022/07/19 07:50:08;;;;;;;3.88;2.15;;;30.80;56.40;;;;;;4178249;28;20029;-65
2022/07/19 07:52:08;;;;;;;2.20;1.60;;;30.80;56.60;;;;;;4188902;28;20029;-65
2022/07/19 07:54:09;;;;;;;3.70;1.85;;;31.00;57.80;;;;;;4180195;28;20107;-64
2022/07/19 07:56:10;;;;;;;3.47;1.95;;;31.00;55.70;;;;;;4178665;28;20028;-65
2022/07/19 07:58:11;;;;;;;2.65;1.48;;;31.00;55.70;;;;;;4178340;28;20033;-65
2022/07/19 08:00:13;;;;;;;6.20;2.40;;;31.00;55.50;;;;;;4178017;28;20029;-65
2022/07/19 08:02:14;;;;;;;3.00;1.67;;;31.00;56.30;;;;;;4179021;28;20123;-64
2022/07/19 08:04:15;;;;;;;3.25;1.77;;;31.10;55.10;;;;;;4179244;28;20055;-65
2022/07/19 08:06:15;;;;;;;3.28;2.05;;;31.20;55.60;;;;;;4182826;28;20040;-65
2022/07/19 08:08:16;;;;;;;4.07;1.75;;;31.20;55.10;;;;;;4179642;28;20476;-65
2022/07/19 08:10:17;;;;;;;4.15;1.88;;;31.20;55.80;;;;;;4177540;28;20029;-65
2022/07/19 08:12:18;;;;;;;3.63;2.05;;;31.30;56.80;;;;;;4178658;28;20029;-65
2022/07/19 08:14:19;;;;;;;4.40;2.13;;;31.30;55.70;;;;;;4178425;28;20032;-65
2022/07/19 08:16:19;;;;;;;3.50;1.77;;;31.30;55.80;;;;;;4178365;28;20495;-65
2022/07/19 08:18:20;;;;;;;6.03;2.05;;;31.40;55.50;;;;;;4175677;28;20033;-65
2022/07/19 08:20:21;;;;;;;2.95;1.80;;;31.40;55.60;;;;;;4175312;28;20033;-65
2022/07/19 08:22:21;;;;;;;4.28;2.03;;;31.50;55.40;;;;;;4190737;28;20048;-65
2022/07/19 08:24:22;;;;;;;6.32;1.88;;;31.50;56.00;;;;;;4183184;28;20381;-64
2022/07/19 08:26:22;;;;;;;3.72;2.45;;;31.60;55.70;;;;;;4178332;28;20042;-64
2022/07/19 08:28:23;;;;;;;3.65;1.70;;;31.60;55.00;;;;;;4177746;28;20052;-65
2022/07/19 08:30:24;;;;;;;4.65;2.50;;;31.60;55.30;;;;;;4177292;28;20044;-64
2022/07/19 08:32:24;;;;;;;3.35;2.00;;;31.70;55.00;;;;;;4179038;28;20041;-64
2022/07/19 08:34:25;;;;;;;3.45;2.20;;;31.70;55.20;;;;;;4177611;28;20507;-64
2022/07/19 08:36:26;;;;;;;4.88;2.30;;;31.80;55.30;;;;;;4176491;28;20029;-65
2022/07/19 08:38:26;;;;;;;3.30;1.90;;;31.80;54.90;;;;;;4175443;28;20037;-65
2022/07/19 08:40:27;;;;;;;4.35;1.98;;;31.80;56.10;;;;;;4174289;28;20060;-64
2022/07/19 08:42:29;;;;;;;6.05;1.75;;;31.90;55.80;;;;;;4175549;28;20041;-65
2022/07/19 08:44:32;;;;;;;5.85;2.13;;;31.90;55.80;;;;;;4175553;28;20056;-65
2022/07/19 08:46:33;;;;;;;4.60;2.33;;;31.90;55.20;;;;;;4175105;28;20116;-65
2022/07/19 08:48:35;;;;;;;3.13;1.95;;;32.00;55.00;;;;;;4172492;28;20134;-65
2022/07/19 08:50:38;;;;;;;4.10;2.00;;;32.00;55.00;;;;;;4171433;28;20033;-65
2022/07/19 08:52:39;;;;;;;6.20;2.10;;;32.10;56.50;;;;;;4172632;28;20049;-65
2022/07/19 08:54:40;;;;;;;4.80;2.05;;;32.10;55.20;;;;;;4172858;28;20037;-65
2022/07/19 08:59:00;;;;;;;5.18;2.00;;;32.20;55.20;;;;;;4172165;28;20033;-65
2022/07/19 09:01:01;;;;;;;2.90;2.00;;;32.30;55.10;;;;;;4171420;28;20431;-65
2022/07/19 09:03:04;;;;;;;3.35;2.15;;;32.30;54.20;;;;;;4166729;28;20093;-65
2022/07/19 09:05:09;;;;;;;3.15;1.60;;;32.30;54.40;;;;;;4171485;28;20663;-65
2022/07/19 09:07:10;;;;;;;7.07;1.95;;;32.50;54.60;;;;;;4171496;28;20029;-65
2022/07/19 09:09:12;;;;;;;3.70;2.30;;;32.50;53.20;;;;;;4171730;28;20453;-67
2022/07/19 09:11:32;;;;;;;3.78;1.80;;;32.50;53.90;;;;;;4172594;28;20033;-65
2022/07/19 09:13:33;;;;;;;3.83;2.00;;;32.60;54.20;;;;;;4175002;28;20075;-65
2022/07/19 09:15:50;;;;;;;4.78;1.90;;;32.60;51.60;;;;;;4171800;28;20055;-65
2022/07/19 09:18:05;;;;;;;4.32;1.98;;;32.70;52.50;;;;;;4170938;28;20120;-65
2022/07/19 09:20:07;;;;;;;2.22;1.65;;;32.80;53.00;;;;;;4168500;28;20036;-66
2022/07/19 09:22:10;;;;;;;3.42;1.88;;;32.90;53.10;;;;;;4171544;28;20119;-65
2022/07/19 09:24:10;;;;;;;2.97;1.92;;;32.90;53.10;;;;;;4172570;28;20044;-65
2022/07/19 09:26:11;;;;;;;5.32;1.60;;;33.00;51.90;;;;;;4171087;28;20033;-66
2022/07/19 09:28:12;;;;;;;3.55;1.88;;;33.10;52.00;;;;;;4171331;28;20123;-65
2022/07/19 09:30:13;;;;;;;5.35;1.75;;;33.10;51.20;;;;;;4171350;28;20079;-65
2022/07/19 09:32:18;;;;;;;3.05;1.70;;;33.20;52.00;;;;;;4172196;28;20044;-65
2022/07/19 09:34:33;;;;;;;4.28;1.90;;;33.30;52.40;;;;;;4170711;28;20033;-65
2022/07/19 09:36:34;;;;;;;3.55;1.70;;;33.30;51.50;;;;;;4172308;28;20036;-65
2022/07/19 09:38:36;;;;;;;3.42;1.80;;;33.40;50.40;;;;;;4172958;28;20480;-65
2022/07/19 09:40:39;;;;;;;3.47;1.90;;;33.50;51.10;;;;;;4169659;28;20031;-65
2022/07/19 09:42:44;;;;;;;2.05;1.80;;;33.60;50.40;;;;;;4172854;28;20032;-64
2022/07/19 09:44:45;;;;;;;4.85;2.00;;;33.60;49.90;;;;;;4173203;28;20032;-65
2022/07/19 09:46:47;;;;;;;2.67;1.75;;;33.60;50.30;;;;;;4175091;28;20419;-65
2022/07/19 09:48:48;;;;;;;3.25;1.83;;;33.60;48.70;;;;;;4160096;28;20030;-66
2022/07/19 09:50:49;;;;;;;4.05;2.05;;;33.80;49.80;;;;;;4171274;28;20037;-65
2022/07/19 09:52:51;;;;;;;1.70;1.50;;;33.80;52.00;;;;;;4191916;28;20033;-65
2022/07/19 09:54:52;;;;;;;5.15;1.70;;;33.90;50.70;;;;;;4191174;28;20056;-65
2022/07/19 09:56:54;;;;;;;4.20;1.70;;;34.00;50.00;;;;;;4174753;28;20451;-65
2022/07/19 09:58:56;;;;;;;3.10;1.88;;;34.00;49.10;;;;;;4176181;28;20442;-65
2022/07/19 10:00:57;;;;;;;;;;;34.10;48.40;;;;;;4175563;28;20060;-65
2022/07/19 10:03:00;;;;;;;2.28;1.30;;;34.20;48.60;;;;;;4175890;28;19909;-65
2022/07/19 10:05:03;;;;;;;3.65;2.00;;;34.20;47.70;;;;;;4175729;28;21618;-65
2022/07/19 10:07:04;;;;;;;2.70;1.52;;;34.30;47.70;;;;;;4173925;28;20033;-65
2022/07/19 10:09:07;;;;;;;2.95;1.52;;;34.30;48.40;;;;;;4175497;28;20562;-65
2022/07/19 10:11:08;;;;;;;3.58;1.70;;;34.40;50.00;;;;;;4174460;28;20041;-65
2022/07/19 10:13:09;;;;;;;2.33;1.63;;;34.40;47.60;;;;;;4175441;28;20045;-65
2022/07/19 10:15:12;;;;;;;4.22;1.70;;;34.50;47.70;;;;;;4174799;28;20025;-65
2022/07/19 10:17:28;;;;;;;2.28;1.58;;;34.60;47.10;;;;;;4174050;28;20488;-65
2022/07/19 10:19:44;;;;;;;4.70;1.83;;;34.70;47.80;;;;;;4174489;28;20079;-65
2022/07/19 10:21:46;;;;;;;10.93;1.83;;;34.70;47.60;;;;;;4182513;28;20033;-65
2022/07/19 10:23:51;;;;;;;2.10;1.27;;;34.80;45.90;;;;;;4194593;28;20514;-65
2022/07/19 10:25:52;;;;;;;2.67;1.60;;;34.90;46.60;;;;;;4185978;28;20143;-65
2022/07/19 10:27:55;;;;;;;2.28;1.40;;;34.90;45.00;;;;;;4176719;28;20068;-65
2022/07/19 10:30:11;;;;;;;3.50;1.75;;;34.90;44.20;;;;;;4174281;28;20045;-65
2022/07/19 10:32:13;;;;;;;2.78;1.58;;;35.00;45.60;;;;;;4177081;28;20595;-65
2022/07/19 10:34:23;;;;;;;4.35;1.65;;;35.00;44.80;;;;;;4177009;28;20401;-65